sensor_id;sensor_type;location;lat;lon;timestamp;pressure;altitude;pressure_sealevel;temperature;humidity
50790;BME280;37287;47.554;7.844;2023-06-10T00:00:47;97340.66;;;18.51;62.66
50790;BME280;37287;47.554;7.844;2023-06-10T00:03:13;97328.28;;;18.47;62.54
50790;BME280;37287;47.554;7.844;2023-06-10T00:05:42;97333.41;;;18.58;62.01
50790;BME280;37287;47.554;7.844;2023-06-10T00:08:11;97333.44;;;18.80;60.91
50790;BME280;37287;47.554;7.844;2023-06-10T00:10:38;97342.22;;;18.74;60.78
50790;BME280;37287;47.554;7.844;2023-06-10T00:13:06;97340.13;;;18.44;63.41
50790;BME280;37287;47.554;7.844;2023-06-10T00:15:35;97349.69;;;18.26;64.70
50790;BME280;37287;47.554;7.844;2023-06-10T00:18:04;97351.03;;;18.09;66.39
50790;BME280;37287;47.554;7.844;2023-06-10T00:20:33;97358.13;;;17.93;66.55
50790;BME280;37287;47.554;7.844;2023-06-10T00:23:02;97351.00;;;17.83;67.30
50790;BME280;37287;47.554;7.844;2023-06-10T00:25:28;97352.06;;;17.73;68.13
50790;BME280;37287;47.554;7.844;2023-06-10T00:27:55;97348.44;;;17.76;67.78
50790;BME280;37287;47.554;7.844;2023-06-10T00:30:24;97349.97;;;17.77;67.17
50790;BME280;37287;47.554;7.844;2023-06-10T00:32:51;97345.91;;;17.81;66.44
50790;BME280;37287;47.554;7.844;2023-06-10T00:35:17;97347.25;;;17.77;67.75
50790;BME280;37287;47.554;7.844;2023-06-10T00:37:44;97350.41;;;17.62;69.81
50790;BME280;37287;47.554;7.844;2023-06-10T00:40:11;97349.63;;;17.49;70.03
50790;BME280;37287;47.554;7.844;2023-06-10T00:42:40;97346.31;;;17.41;71.17
50790;BME280;37287;47.554;7.844;2023-06-10T00:45:07;97345.63;;;17.37;70.17
50790;BME280;37287;47.554;7.844;2023-06-10T00:47:34;97342.16;;;17.36;70.23
50790;BME280;37287;47.554;7.844;2023-06-10T00:50:04;97348.13;;;17.31;70.82
50790;BME280;37287;47.554;7.844;2023-06-10T00:52:31;97341.44;;;17.19;72.28
50790;BME280;37287;47.554;7.844;2023-06-10T00:55:00;97350.16;;;17.14;71.62
50790;BME280;37287;47.554;7.844;2023-06-10T00:57:29;97346.06;;;17.35;70.79
50790;BME280;37287;47.554;7.844;2023-06-10T00:59:56;97348.50;;;17.33;70.35
50790;BME280;37287;47.554;7.844;2023-06-10T01:07:54;97350.41;;;16.91;73.94
50790;BME280;37287;47.554;7.844;2023-06-10T01:11:00;97349.44;;;16.81;74.52
50790;BME280;37287;47.554;7.844;2023-06-10T01:13:19;97351.00;;;16.82;75.27
50790;BME280;37287;47.554;7.844;2023-06-10T01:15:52;97352.78;;;16.72;75.99
50790;BME280;37287;47.554;7.844;2023-06-10T01:18:21;97352.66;;;16.63;76.77
50790;BME280;37287;47.554;7.844;2023-06-10T01:20:48;97348.13;;;16.56;78.84
50790;BME280;37287;47.554;7.844;2023-06-10T01:23:17;97350.94;;;16.53;77.13
50790;BME280;37287;47.554;7.844;2023-06-10T01:25:54;97353.09;;;16.45;79.23
50790;BME280;37287;47.554;7.844;2023-06-10T01:28:39;97356.56;;;16.45;80.11
50790;BME280;37287;47.554;7.844;2023-06-10T01:31:43;97348.97;;;16.37;80.71
50790;BME280;37287;47.554;7.844;2023-06-10T01:34:18;97352.91;;;16.36;78.39
50790;BME280;37287;47.554;7.844;2023-06-10T01:36:47;97348.28;;;16.32;78.04
50790;BME280;37287;47.554;7.844;2023-06-10T01:39:20;97355.38;;;16.30;78.28
50790;BME280;37287;47.554;7.844;2023-06-10T01:41:49;97356.06;;;16.34;77.67
50790;BME280;37287;47.554;7.844;2023-06-10T01:44:25;97362.38;;;16.31;79.47
50790;BME280;37287;47.554;7.844;2023-06-10T01:46:56;97357.16;;;16.20;79.54
50790;BME280;37287;47.554;7.844;2023-06-10T01:49:22;97353.06;;;16.12;80.29
50790;BME280;37287;47.554;7.844;2023-06-10T01:51:50;97363.31;;;16.08;81.53
50790;BME280;37287;47.554;7.844;2023-06-10T01:54:17;97357.66;;;15.98;84.81
50790;BME280;37287;47.554;7.844;2023-06-10T01:56:43;97364.81;;;15.92;83.04
50790;BME280;37287;47.554;7.844;2023-06-10T01:59:10;97365.78;;;16.02;81.50
50790;BME280;37287;47.554;7.844;2023-06-10T02:01:38;97374.41;;;16.01;81.17
50790;BME280;37287;47.554;7.844;2023-06-10T02:04:05;97372.84;;;15.99;81.32
50790;BME280;37287;47.554;7.844;2023-06-10T02:06:32;97366.38;;;15.93;82.00
50790;BME280;37287;47.554;7.844;2023-06-10T02:08:59;97373.06;;;15.89;82.83
50790;BME280;37287;47.554;7.844;2023-06-10T02:11:25;97369.22;;;15.86;82.43
50790;BME280;37287;47.554;7.844;2023-06-10T02:13:53;97363.50;;;15.80;84.16
50790;BME280;37287;47.554;7.844;2023-06-10T02:16:21;97371.28;;;15.82;82.54
50790;BME280;37287;47.554;7.844;2023-06-10T02:18:50;97371.31;;;15.78;84.19
50790;BME280;37287;47.554;7.844;2023-06-10T02:21:17;97381.34;;;15.85;82.68
50790;BME280;37287;47.554;7.844;2023-06-10T02:23:45;97383.25;;;15.88;82.14
50790;BME280;37287;47.554;7.844;2023-06-10T02:26:13;97380.66;;;15.81;83.48
50790;BME280;37287;47.554;7.844;2023-06-10T02:28:44;97378.75;;;15.78;82.64
50790;BME280;37287;47.554;7.844;2023-06-10T02:31:11;97378.06;;;15.74;83.40
50790;BME280;37287;47.554;7.844;2023-06-10T02:33:37;97391.00;;;15.70;83.25
50790;BME280;37287;47.554;7.844;2023-06-10T02:36:06;97389.13;;;15.67;83.64
50790;BME280;37287;47.554;7.844;2023-06-10T02:38:33;97398.13;;;15.63;84.04
50790;BME280;37287;47.554;7.844;2023-06-10T02:41:00;97391.97;;;15.59;84.49
50790;BME280;37287;47.554;7.844;2023-06-10T02:43:26;97395.91;;;15.58;84.22
50790;BME280;37287;47.554;7.844;2023-06-10T02:45:53;97391.69;;;15.54;85.48
50790;BME280;37287;47.554;7.844;2023-06-10T02:48:20;97394.94;;;15.48;86.53
50790;BME280;37287;47.554;7.844;2023-06-10T02:50:48;97395.78;;;15.45;87.03
50790;BME280;37287;47.554;7.844;2023-06-10T02:53:26;97401.28;;;15.42;86.64
50790;BME280;37287;47.554;7.844;2023-06-10T02:55:53;97401.28;;;15.42;86.70
50790;BME280;37287;47.554;7.844;2023-06-10T02:58:19;97400.25;;;15.36;87.59
50790;BME280;37287;47.554;7.844;2023-06-10T03:00:49;97398.00;;;15.30;88.12
50790;BME280;37287;47.554;7.844;2023-06-10T03:03:18;97405.84;;;15.28;89.68
50790;BME280;37287;47.554;7.844;2023-06-10T03:05:45;97405.47;;;15.26;89.71
50790;BME280;37287;47.554;7.844;2023-06-10T03:08:12;97398.84;;;15.27;88.57
50790;BME280;37287;47.554;7.844;2023-06-10T03:13:14;97408.19;;;15.26;88.70
50790;BME280;37287;47.554;7.844;2023-06-10T03:15:41;97412.47;;;15.27;88.09
50790;BME280;37287;47.554;7.844;2023-06-10T03:18:08;97419.09;;;15.26;88.34
50790;BME280;37287;47.554;7.844;2023-06-10T03:20:35;97410.59;;;15.24;88.17
50790;BME280;37287;47.554;7.844;2023-06-10T03:23:06;97414.78;;;15.29;87.44
50790;BME280;37287;47.554;7.844;2023-06-10T03:25:32;97416.03;;;15.24;88.00
50790;BME280;37287;47.554;7.844;2023-06-10T03:28:02;97413.66;;;15.26;87.66
50790;BME280;37287;47.554;7.844;2023-06-10T03:30:28;97418.34;;;15.26;87.83
50790;BME280;37287;47.554;7.844;2023-06-10T03:32:55;97413.88;;;15.36;87.09
50790;BME280;37287;47.554;7.844;2023-06-10T03:35:23;97421.66;;;15.37;86.18
50790;BME280;37287;47.554;7.844;2023-06-10T03:37:52;97418.56;;;15.35;86.04
50790;BME280;37287;47.554;7.844;2023-06-10T03:40:18;97419.53;;;15.25;87.47
50790;BME280;37287;47.554;7.844;2023-06-10T03:42:47;97427.00;;;15.21;88.04
50790;BME280;37287;47.554;7.844;2023-06-10T03:45:13;97427.41;;;15.19;88.27
50790;BME280;37287;47.554;7.844;2023-06-10T03:47:40;97427.09;;;15.17;88.50
50790;BME280;37287;47.554;7.844;2023-06-10T03:50:10;97424.28;;;15.21;88.38
50790;BME280;37287;47.554;7.844;2023-06-10T03:52:37;97416.53;;;15.39;87.90
50790;BME280;37287;47.554;7.844;2023-06-10T03:55:06;97428.00;;;15.51;86.66
50790;BME280;37287;47.554;7.844;2023-06-10T03:57:39;97422.84;;;15.56;87.29
50790;BME280;37287;47.554;7.844;2023-06-10T04:00:06;97418.88;;;15.61;86.52
50790;BME280;37287;47.554;7.844;2023-06-10T04:02:39;97422.97;;;15.69;86.13
50790;BME280;37287;47.554;7.844;2023-06-10T04:05:17;97428.38;;;15.73;85.62
50790;BME280;37287;47.554;7.844;2023-06-10T04:07:45;97433.47;;;15.71;85.76
50790;BME280;37287;47.554;7.844;2023-06-10T04:10:16;97424.34;;;15.81;86.26
50790;BME280;37287;47.554;7.844;2023-06-10T04:12:43;97425.03;;;15.85;85.76
50790;BME280;37287;47.554;7.844;2023-06-10T04:15:10;97429.91;;;15.94;86.22
50790;BME280;37287;47.554;7.844;2023-06-10T04:17:38;97432.97;;;15.96;87.41
50790;BME280;37287;47.554;7.844;2023-06-10T04:20:05;97433.63;;;16.20;85.88
50790;BME280;37287;47.554;7.844;2023-06-10T04:22:34;97435.97;;;16.38;85.18
50790;BME280;37287;47.554;7.844;2023-06-10T04:25:03;97439.16;;;16.53;84.23
50790;BME280;37287;47.554;7.844;2023-06-10T04:27:30;97437.69;;;16.48;84.34
50790;BME280;37287;47.554;7.844;2023-06-10T04:29:57;97438.88;;;16.64;84.38
50790;BME280;37287;47.554;7.844;2023-06-10T04:32:25;97437.28;;;16.66;84.64
50790;BME280;37287;47.554;7.844;2023-06-10T04:34:52;97449.50;;;16.78;84.71
50790;BME280;37287;47.554;7.844;2023-06-10T04:37:19;97446.59;;;16.85;84.32
50790;BME280;37287;47.554;7.844;2023-06-10T04:39:48;97446.34;;;16.96;84.48
50790;BME280;37287;47.554;7.844;2023-06-10T04:42:15;97440.84;;;17.13;83.96
50790;BME280;37287;47.554;7.844;2023-06-10T04:44:43;97448.69;;;17.27;82.87
50790;BME280;37287;47.554;7.844;2023-06-10T04:47:13;97455.75;;;17.41;83.00
50790;BME280;37287;47.554;7.844;2023-06-10T04:49:40;97453.50;;;17.52;81.93
50790;BME280;37287;47.554;7.844;2023-06-10T04:52:07;97457.63;;;17.44;82.15
50790;BME280;37287;47.554;7.844;2023-06-10T04:54:33;97458.91;;;17.56;82.67
50790;BME280;37287;47.554;7.844;2023-06-10T04:57:03;97456.09;;;17.73;81.68
50790;BME280;37287;47.554;7.844;2023-06-10T04:59:40;97453.28;;;17.89;81.66
50790;BME280;37287;47.554;7.844;2023-06-10T05:02:07;97457.72;;;17.99;81.49
50790;BME280;37287;47.554;7.844;2023-06-10T05:04:33;97457.19;;;18.17;80.77
50790;BME280;37287;47.554;7.844;2023-06-10T05:07:03;97461.50;;;18.31;80.43
50790;BME280;37287;47.554;7.844;2023-06-10T05:09:30;97457.78;;;18.38;80.37
50790;BME280;37287;47.554;7.844;2023-06-10T05:11:57;97455.88;;;18.48;80.01
50790;BME280;37287;47.554;7.844;2023-06-10T05:14:24;97463.69;;;18.62;79.83
50790;BME280;37287;47.554;7.844;2023-06-10T05:16:51;97462.38;;;18.67;79.92
50790;BME280;37287;47.554;7.844;2023-06-10T05:19:19;97460.81;;;18.79;79.82
50790;BME280;37287;47.554;7.844;2023-06-10T05:21:50;97465.66;;;18.87;79.68
50790;BME280;37287;47.554;7.844;2023-06-10T05:24:16;97472.75;;;19.11;79.61
50790;BME280;37287;47.554;7.844;2023-06-10T05:26:43;97469.47;;;19.38;78.82
50790;BME280;37287;47.554;7.844;2023-06-10T05:29:11;97469.50;;;19.60;78.35
50790;BME280;37287;47.554;7.844;2023-06-10T05:31:40;97469.56;;;19.82;77.59
50790;BME280;37287;47.554;7.844;2023-06-10T05:34:07;97474.25;;;20.35;76.32
50790;BME280;37287;47.554;7.844;2023-06-10T05:36:37;97471.22;;;20.74;74.06
50790;BME280;37287;47.554;7.844;2023-06-10T05:39:06;97470.53;;;21.10;72.80
50790;BME280;37287;47.554;7.844;2023-06-10T05:41:32;97475.97;;;21.60;70.61
50790;BME280;37287;47.554;7.844;2023-06-10T05:43:59;97479.84;;;22.15;68.53
50790;BME280;37287;47.554;7.844;2023-06-10T05:46:26;97477.72;;;22.62;66.13
50790;BME280;37287;47.554;7.844;2023-06-10T05:48:52;97474.31;;;23.00;64.34
50790;BME280;37287;47.554;7.844;2023-06-10T05:51:21;97477.78;;;23.10;63.91
50790;BME280;37287;47.554;7.844;2023-06-10T05:53:48;97478.34;;;23.63;62.30
50790;BME280;37287;47.554;7.844;2023-06-10T05:56:17;97476.44;;;23.69;60.41
50790;BME280;37287;47.554;7.844;2023-06-10T05:58:49;97475.91;;;24.25;58.74
50790;BME280;37287;47.554;7.844;2023-06-10T06:01:15;97475.91;;;24.40;57.36
50790;BME280;37287;47.554;7.844;2023-06-10T06:03:42;97471.16;;;24.10;57.40
50790;BME280;37287;47.554;7.844;2023-06-10T06:06:10;97470.78;;;24.02;57.97
50790;BME280;37287;47.554;7.844;2023-06-10T06:08:37;97476.19;;;24.27;56.98
50790;BME280;37287;47.554;7.844;2023-06-10T06:11:04;97477.34;;;24.35;56.75
50790;BME280;37287;47.554;7.844;2023-06-10T06:13:30;97471.59;;;24.53;56.53
50790;BME280;37287;47.554;7.844;2023-06-10T06:15:57;97471.53;;;24.83;56.67
50790;BME280;37287;47.554;7.844;2023-06-10T06:18:24;97466.41;;;24.76;56.86
50790;BME280;37287;47.554;7.844;2023-06-10T06:20:52;97471.69;;;24.95;56.59
50790;BME280;37287;47.554;7.844;2023-06-10T06:23:18;97466.59;;;25.49;55.08
50790;BME280;37287;47.554;7.844;2023-06-10T06:25:45;97469.50;;;25.61;54.69
50790;BME280;37287;47.554;7.844;2023-06-10T06:28:13;97467.03;;;26.21;52.96
50790;BME280;37287;47.554;7.844;2023-06-10T06:30:40;97465.97;;;26.76;51.73
50790;BME280;37287;47.554;7.844;2023-06-10T06:33:08;97460.72;;;26.90;50.52
50790;BME280;37287;47.554;7.844;2023-06-10T06:35:44;97471.44;;;27.14;50.83
50790;BME280;37287;47.554;7.844;2023-06-10T06:38:11;97464.41;;;27.24;50.51
50790;BME280;37287;47.554;7.844;2023-06-10T06:40:37;97466.41;;;27.18;51.05
50790;BME280;37287;47.554;7.844;2023-06-10T06:43:08;97470.38;;;27.06;50.86
50790;BME280;37287;47.554;7.844;2023-06-10T06:45:35;97464.88;;;26.68;52.29
50790;BME280;37287;47.554;7.844;2023-06-10T06:48:02;97461.22;;;26.88;51.38
50790;BME280;37287;47.554;7.844;2023-06-10T06:50:30;97462.06;;;26.63;52.24
50790;BME280;37287;47.554;7.844;2023-06-10T06:52:57;97463.06;;;26.59;52.40
50790;BME280;37287;47.554;7.844;2023-06-10T06:55:24;97459.53;;;26.65;52.01
50790;BME280;37287;47.554;7.844;2023-06-10T06:57:52;97462.97;;;26.48;52.54
50790;BME280;37287;47.554;7.844;2023-06-10T07:00:19;97462.25;;;26.53;51.87
50790;BME280;37287;47.554;7.844;2023-06-10T07:02:45;97463.59;;;26.32;52.97
50790;BME280;37287;47.554;7.844;2023-06-10T07:05:15;97462.97;;;26.16;53.45
50790;BME280;37287;47.554;7.844;2023-06-10T07:07:41;97458.19;;;26.17;53.62
50790;BME280;37287;47.554;7.844;2023-06-10T07:10:08;97457.63;;;26.45;52.81
50790;BME280;37287;47.554;7.844;2023-06-10T07:12:36;97468.84;;;26.93;51.63
50790;BME280;37287;47.554;7.844;2023-06-10T07:15:03;97467.34;;;27.64;50.20
50790;BME280;37287;47.554;7.844;2023-06-10T07:17:30;97464.16;;;28.51;48.25
50790;BME280;37287;47.554;7.844;2023-06-10T07:20:03;97466.69;;;28.31;48.29
50790;BME280;37287;47.554;7.844;2023-06-10T07:22:30;97465.94;;;28.08;47.81
50790;BME280;37287;47.554;7.844;2023-06-10T07:24:57;97475.16;;;27.49;49.28
50790;BME280;37287;47.554;7.844;2023-06-10T07:27:26;97474.78;;;27.24;49.53
50790;BME280;37287;47.554;7.844;2023-06-10T07:29:56;97469.16;;;27.73;48.46
50790;BME280;37287;47.554;7.844;2023-06-10T07:32:27;97471.00;;;28.21;47.13
50790;BME280;37287;47.554;7.844;2023-06-10T07:34:54;97472.72;;;28.81;46.17
50790;BME280;37287;47.554;7.844;2023-06-10T07:37:20;97472.75;;;28.47;46.28
50790;BME280;37287;47.554;7.844;2023-06-10T07:39:47;97469.47;;;28.20;46.76
50790;BME280;37287;47.554;7.844;2023-06-10T07:42:16;97466.41;;;27.90;46.76
50790;BME280;37287;47.554;7.844;2023-06-10T07:44:42;97463.13;;;27.97;46.88
50790;BME280;37287;47.554;7.844;2023-06-10T07:47:09;97469.16;;;27.84;46.99
50790;BME280;37287;47.554;7.844;2023-06-10T07:49:37;97462.81;;;27.84;46.72
50790;BME280;37287;47.554;7.844;2023-06-10T07:52:04;97462.56;;;27.65;46.85
50790;BME280;37287;47.554;7.844;2023-06-10T07:54:33;97464.84;;;27.72;46.67
50790;BME280;37287;47.554;7.844;2023-06-10T07:57:02;97459.50;;;27.62;46.62
50790;BME280;37287;47.554;7.844;2023-06-10T07:59:29;97464.81;;;27.60;46.52
50790;BME280;37287;47.554;7.844;2023-06-10T08:01:56;97461.03;;;27.69;46.13
50790;BME280;37287;47.554;7.844;2023-06-10T08:04:22;97462.44;;;27.31;47.54
50790;BME280;37287;47.554;7.844;2023-06-10T08:06:51;97476.50;;;27.16;47.24
50790;BME280;37287;47.554;7.844;2023-06-10T08:09:18;97470.22;;;27.21;47.41
50790;BME280;37287;47.554;7.844;2023-06-10T08:11:46;97465.81;;;27.52;46.56
50790;BME280;37287;47.554;7.844;2023-06-10T08:14:13;97466.22;;;27.33;46.61
50790;BME280;37287;47.554;7.844;2023-06-10T08:16:40;97458.53;;;27.66;46.57
50790;BME280;37287;47.554;7.844;2023-06-10T08:19:13;97461.63;;;28.02;45.58
50790;BME280;37287;47.554;7.844;2023-06-10T08:21:40;97463.38;;;27.99;45.70
50790;BME280;37287;47.554;7.844;2023-06-10T08:24:07;97464.88;;;27.94;45.58
50790;BME280;37287;47.554;7.844;2023-06-10T08:26:35;97461.03;;;27.63;45.63
50790;BME280;37287;47.554;7.844;2023-06-10T08:29:02;97458.84;;;28.07;45.31
50790;BME280;37287;47.554;7.844;2023-06-10T08:31:29;97458.09;;;28.18;45.35
50790;BME280;37287;47.554;7.844;2023-06-10T08:33:55;97453.78;;;28.11;45.48
50790;BME280;37287;47.554;7.844;2023-06-10T08:36:22;97452.97;;;27.77;45.41
50790;BME280;37287;47.554;7.844;2023-06-10T08:38:50;97454.53;;;28.12;45.21
50790;BME280;37287;47.554;7.844;2023-06-10T08:41:25;97456.28;;;28.60;43.96
50790;BME280;37287;47.554;7.844;2023-06-10T08:44:05;97452.06;;;29.29;42.15
50790;BME280;37287;47.554;7.844;2023-06-10T08:46:36;97449.47;;;29.43;42.44
50790;BME280;37287;47.554;7.844;2023-06-10T08:49:10;97451.22;;;28.81;43.64
50790;BME280;37287;47.554;7.844;2023-06-10T08:51:37;97442.88;;;28.76;44.08
50790;BME280;37287;47.554;7.844;2023-06-10T08:54:15;97447.66;;;28.81;42.90
50790;BME280;37287;47.554;7.844;2023-06-10T08:56:49;97443.88;;;28.61;44.40
50790;BME280;37287;47.554;7.844;2023-06-10T08:59:19;97443.63;;;28.59;43.75
50790;BME280;37287;47.554;7.844;2023-06-10T09:02:02;97440.31;;;28.78;43.54
50790;BME280;37287;47.554;7.844;2023-06-10T09:04:31;97445.84;;;28.95;43.25
50790;BME280;37287;47.554;7.844;2023-06-10T09:06:57;97435.34;;;29.18;42.69
50790;BME280;37287;47.554;7.844;2023-06-10T09:09:26;97431.13;;;30.31;40.07
50790;BME280;37287;47.554;7.844;2023-06-10T09:11:54;97440.22;;;29.65;40.58
50790;BME280;37287;47.554;7.844;2023-06-10T09:14:21;97429.25;;;29.20;41.41
50790;BME280;37287;47.554;7.844;2023-06-10T09:16:48;97423.41;;;29.35;41.35
50790;BME280;37287;47.554;7.844;2023-06-10T09:19:16;97417.66;;;29.15;41.55
50790;BME280;37287;47.554;7.844;2023-06-10T09:21:43;97418.69;;;29.07;41.11
50790;BME280;37287;47.554;7.844;2023-06-10T09:24:13;97428.41;;;28.83;40.89
50790;BME280;37287;47.554;7.844;2023-06-10T09:26:43;97422.53;;;28.92;41.44
50790;BME280;37287;47.554;7.844;2023-06-10T09:29:09;97425.09;;;28.90;41.24
50790;BME280;37287;47.554;7.844;2023-06-10T09:31:40;97421.75;;;29.03;40.86
50790;BME280;37287;47.554;7.844;2023-06-10T09:34:14;97417.69;;;29.10;38.63
50790;BME280;37287;47.554;7.844;2023-06-10T09:36:45;97416.16;;;29.09;39.70
50790;BME280;37287;47.554;7.844;2023-06-10T09:39:16;97426.72;;;29.33;39.00
50790;BME280;37287;47.554;7.844;2023-06-10T09:41:45;97422.91;;;29.30;39.34
50790;BME280;37287;47.554;7.844;2023-06-10T09:44:20;97424.47;;;29.26;37.38
50790;BME280;37287;47.554;7.844;2023-06-10T09:46:50;97423.59;;;28.78;39.11
50790;BME280;37287;47.554;7.844;2023-06-10T09:49:17;97418.44;;;29.05;38.93
50790;BME280;37287;47.554;7.844;2023-06-10T09:51:51;97414.56;;;29.30;37.86
50790;BME280;37287;47.554;7.844;2023-06-10T09:54:19;97415.72;;;29.46;38.00
50790;BME280;37287;47.554;7.844;2023-06-10T09:56:51;97417.53;;;29.44;37.88
50790;BME280;37287;47.554;7.844;2023-06-10T09:59:30;97411.44;;;28.81;37.20
50790;BME280;37287;47.554;7.844;2023-06-10T10:02:00;97405.75;;;29.09;38.10
50790;BME280;37287;47.554;7.844;2023-06-10T10:04:27;97407.72;;;29.31;37.88
50790;BME280;37287;47.554;7.844;2023-06-10T10:06:55;97412.25;;;29.35;37.75
50790;BME280;37287;47.554;7.844;2023-06-10T10:09:23;97406.50;;;29.15;37.74
50790;BME280;37287;47.554;7.844;2023-06-10T10:11:51;97412.75;;;28.46;37.31
50790;BME280;37287;47.554;7.844;2023-06-10T10:14:24;97413.28;;;27.82;38.73
50790;BME280;37287;47.554;7.844;2023-06-10T10:16:53;97410.47;;;27.82;39.01
50790;BME280;37287;47.554;7.844;2023-06-10T10:19:28;97405.69;;;28.62;37.85
50790;BME280;37287;47.554;7.844;2023-06-10T10:22:07;97390.59;;;29.05;37.10
50790;BME280;37287;47.554;7.844;2023-06-10T10:24:42;97393.28;;;29.27;36.64
50790;BME280;37287;47.554;7.844;2023-06-10T10:27:18;97400.22;;;29.57;36.00
50790;BME280;37287;47.554;7.844;2023-06-10T10:29:47;97395.91;;;29.92;35.81
50790;BME280;37287;47.554;7.844;2023-06-10T10:32:26;97394.06;;;29.64;35.78
50790;BME280;37287;47.554;7.844;2023-06-10T10:35:08;97392.78;;;29.71;35.75
50790;BME280;37287;47.554;7.844;2023-06-10T10:37:35;97396.81;;;29.28;35.19
50790;BME280;37287;47.554;7.844;2023-06-10T10:40:03;97389.00;;;29.15;36.72
50790;BME280;37287;47.554;7.844;2023-06-10T10:42:31;97391.91;;;29.81;35.50
50790;BME280;37287;47.554;7.844;2023-06-10T10:45:02;97385.66;;;30.06;35.05
50790;BME280;37287;47.554;7.844;2023-06-10T10:47:33;97387.19;;;29.71;32.94
50790;BME280;37287;47.554;7.844;2023-06-10T10:50:00;97387.44;;;29.20;35.92
50790;BME280;37287;47.554;7.844;2023-06-10T10:52:56;97391.69;;;29.79;33.78
50790;BME280;37287;47.554;7.844;2023-06-10T10:55:23;97393.16;;;29.86;35.18
50790;BME280;37287;47.554;7.844;2023-06-10T10:58:14;97379.63;;;30.26;34.64
50790;BME280;37287;47.554;7.844;2023-06-10T11:00:46;97379.72;;;30.70;34.03
50790;BME280;37287;47.554;7.844;2023-06-10T11:03:16;97385.03;;;30.93;32.97
50790;BME280;37287;47.554;7.844;2023-06-10T11:05:48;97384.44;;;29.17;32.83
50790;BME280;37287;47.554;7.844;2023-06-10T11:11:27;97377.78;;;28.79;32.64
50790;BME280;37287;47.554;7.844;2023-06-10T11:14:07;97380.09;;;29.28;34.04
50790;BME280;37287;47.554;7.844;2023-06-10T11:16:41;97375.69;;;29.86;33.43
50790;BME280;37287;47.554;7.844;2023-06-10T11:19:08;97366.75;;;30.48;32.60
50790;BME280;37287;47.554;7.844;2023-06-10T11:21:57;97369.19;;;30.57;32.17
50790;BME280;37287;47.554;7.844;2023-06-10T11:24:30;97368.47;;;30.76;32.85
50790;BME280;37287;47.554;7.844;2023-06-10T11:27:22;97364.66;;;29.99;30.38
50790;BME280;37287;47.554;7.844;2023-06-10T11:32:32;97367.16;;;29.30;33.64
50790;BME280;37287;47.554;7.844;2023-06-10T11:35:05;97357.53;;;28.61;34.57
50790;BME280;37287;47.554;7.844;2023-06-10T11:37:34;97366.72;;;29.15;33.67
50790;BME280;37287;47.554;7.844;2023-06-10T11:40:00;97363.19;;;29.56;33.10
50790;BME280;37287;47.554;7.844;2023-06-10T11:42:30;97355.88;;;29.89;32.59
50790;BME280;37287;47.554;7.844;2023-06-10T11:44:57;97359.47;;;29.48;30.88
50790;BME280;37287;47.554;7.844;2023-06-10T11:47:27;97358.13;;;29.13;33.08
50790;BME280;37287;47.554;7.844;2023-06-10T11:49:56;97349.06;;;29.48;32.98
50790;BME280;37287;47.554;7.844;2023-06-10T11:52:27;97353.47;;;29.32;32.97
50790;BME280;37287;47.554;7.844;2023-06-10T11:54:55;97346.84;;;29.36;31.99
50790;BME280;37287;47.554;7.844;2023-06-10T11:57:23;97347.25;;;29.51;33.21
50790;BME280;37287;47.554;7.844;2023-06-10T11:59:50;97347.22;;;29.57;32.06
50790;BME280;37287;47.554;7.844;2023-06-10T12:02:18;97353.38;;;28.96;32.46
50790;BME280;37287;47.554;7.844;2023-06-10T12:04:47;97346.28;;;28.95;33.77
50790;BME280;37287;47.554;7.844;2023-06-10T12:07:18;97342.94;;;29.03;33.87
50790;BME280;37287;47.554;7.844;2023-06-10T12:09:46;97341.09;;;29.64;32.34
50790;BME280;37287;47.554;7.844;2023-06-10T12:12:13;97348.53;;;29.03;32.54
50790;BME280;37287;47.554;7.844;2023-06-10T12:14:56;97343.09;;;28.69;32.39
50790;BME280;37287;47.554;7.844;2023-06-10T12:20:05;97333.66;;;30.02;32.18
50790;BME280;37287;47.554;7.844;2023-06-10T12:22:43;97333.09;;;30.59;31.18
50790;BME280;37287;47.554;7.844;2023-06-10T12:25:12;97332.41;;;30.53;32.04
50790;BME280;37287;47.554;7.844;2023-06-10T12:27:52;97326.44;;;30.62;31.61
50790;BME280;37287;47.554;7.844;2023-06-10T12:30:25;97328.69;;;30.89;32.01
50790;BME280;37287;47.554;7.844;2023-06-10T12:32:53;97328.78;;;30.33;32.44
50790;BME280;37287;47.554;7.844;2023-06-10T12:35:21;97335.44;;;30.30;30.28
50790;BME280;37287;47.554;7.844;2023-06-10T12:37:57;97324.19;;;29.09;33.38
50790;BME280;37287;47.554;7.844;2023-06-10T12:40:34;97322.38;;;29.53;33.07
50790;BME280;37287;47.554;7.844;2023-06-10T12:43:04;97310.94;;;29.21;33.80
50790;BME280;37287;47.554;7.844;2023-06-10T12:45:33;97311.53;;;29.49;33.35
50790;BME280;37287;47.554;7.844;2023-06-10T12:48:10;97317.28;;;29.93;32.81
50790;BME280;37287;47.554;7.844;2023-06-10T12:50:39;97323.84;;;30.45;32.47
50790;BME280;37287;47.554;7.844;2023-06-10T12:53:09;97319.56;;;30.44;32.32
50790;BME280;37287;47.554;7.844;2023-06-10T12:55:38;97320.63;;;30.35;32.61
50790;BME280;37287;47.554;7.844;2023-06-10T12:58:07;97313.47;;;30.46;32.35
50790;BME280;37287;47.554;7.844;2023-06-10T13:00:35;97315.53;;;30.64;32.39
50790;BME280;37287;47.554;7.844;2023-06-10T13:03:03;97320.50;;;30.72;32.93
50790;BME280;37287;47.554;7.844;2023-06-10T13:05:35;97313.13;;;30.74;33.80
50790;BME280;37287;47.554;7.844;2023-06-10T13:08:07;97311.91;;;30.89;33.96
50790;BME280;37287;47.554;7.844;2023-06-10T13:10:34;97312.28;;;30.98;34.30
50790;BME280;37287;47.554;7.844;2023-06-10T13:13:02;97301.13;;;30.98;34.50
50790;BME280;37287;47.554;7.844;2023-06-10T13:15:32;97301.41;;;30.95;34.32
50790;BME280;37287;47.554;7.844;2023-06-10T13:18:09;97293.00;;;30.95;34.38
50790;BME280;37287;47.554;7.844;2023-06-10T13:20:42;97293.41;;;31.04;34.50
50790;BME280;37287;47.554;7.844;2023-06-10T13:23:09;97295.22;;;31.02;34.71
50790;BME280;37287;47.554;7.844;2023-06-10T13:25:35;97289.81;;;31.10;34.59
50790;BME280;37287;47.554;7.844;2023-06-10T13:28:02;97287.22;;;30.93;34.81